Time;durP1;ratioP1;P1;durP2;ratioP2;P2;SDS_P1;SDS_P2;PMS_P1;PMS_P2;Temp;Humidity;BMP_temperature;BMP_pressure;BME280_temperature;BME280_humidity;BME280_pressure;Samples;Min_cycle;Max_cycle;Signal;HPM_P1;HPM_P2
2021/04/02 00:00:52;;;;;;;;;;;;;;;8.80;100.00;98366.88;1789625;80;21198;-74
2021/04/02 00:03:26;;;;;;;;;;;;;;;8.87;100.00;98369.25;1789553;80;20147;-72
2021/04/02 00:05:54;;;;;;;;;;;;;;;8.90;100.00;98360.70;1789667;80;20127;-73
2021/04/02 00:08:23;;;;;;;;;;;;;;;8.95;100.00;98362.03;1789360;80;20238;-73
2021/04/02 00:10:57;;;;;;;;;;;;;;;8.96;100.00;98352.91;1789665;80;20235;-72
2021/04/02 00:13:33;;;;;;;;;;;;;;;8.96;100.00;98355.05;1789668;80;21137;-73
2021/04/02 00:16:01;;;;;;;;;;;;;;;8.95;100.00;98346.77;1789486;80;20231;-73
2021/04/02 00:18:28;;;;;;;;;;;;;;;8.92;100.00;98340.63;1789611;80;20526;-72
2021/04/02 00:20:57;;;;;;;;;;;;;;;8.87;100.00;98333.95;1789735;80;20780;-72
2021/04/02 00:23:25;;;;;;;;;;;;;;;8.85;100.00;98331.29;1789691;80;20584;-72
2021/04/02 00:25:53;;;;;;;;;;;;;;;8.85;100.00;98332.08;1789650;80;21378;-72
2021/04/02 00:28:22;;;;;;;;;;;;;;;8.84;100.00;98337.70;1787924;80;20229;-72
2021/04/02 00:30:55;;;;;;;;;;;;;;;8.87;100.00;98335.81;1789611;80;20163;-73
2021/04/02 00:33:27;;;;;;;;;;;;;;;8.87;100.00;98336.63;1789562;80;20247;-73
2021/04/02 00:35:55;;;;;;;;;;;;;;;8.87;100.00;98328.61;1789683;80;20163;-73
2021/04/02 00:38:23;;;;;;;;;;;;;;;8.90;100.00;98344.66;1789613;80;21368;-72
2021/04/02 00:40:53;;;;;;;;;;;;;;;8.89;100.00;98335.00;1789543;80;20127;-72
2021/04/02 00:43:27;;;;;;;;;;;;;;;8.92;100.00;98335.82;1789639;80;20231;-72
2021/04/02 00:45:55;;;;;;;;;;;;;;;8.94;100.00;98327.78;1789162;80;20151;-73
2021/04/02 00:48:23;;;;;;;;;;;;;;;8.94;100.00;98329.63;1789582;80;20163;-72
2021/04/02 00:50:56;;;;;;;;;;;;;;;8.89;100.00;98325.64;1789628;80;22171;-73
2021/04/02 00:53:26;;;;;;;;;;;;;;;8.85;100.00;98320.59;1789611;80;20230;-73
2021/04/02 00:55:55;;;;;;;;;;;;;;;8.80;100.00;98317.39;1789592;80;20124;-72
2021/04/02 00:58:24;;;;;;;;;;;;;;;8.79;100.00;98320.61;1789717;80;20567;-72
2021/04/02 01:00:53;;;;;;;;;;;;;;;8.75;100.00;98304.82;1789700;80;20517;-73
2021/04/02 01:03:23;;;;;;;;;;;;;;;8.70;100.00;98295.48;1789545;80;21362;-72
2021/04/02 01:05:55;;;;;;;;;;;;;;;8.70;100.00;98297.36;1759450;80;20155;-73
2021/04/02 01:08:26;;;;;;;;;;;;;;;8.67;100.00;98288.00;1789572;80;20171;-72
2021/04/02 01:10:58;;;;;;;;;;;;;;;8.67;100.00;98288.00;1789570;80;20254;-72
2021/04/02 01:13:40;;;;;;;;;;;;;;;8.64;100.00;98285.84;1759649;80;20302;-72
2021/04/02 01:16:13;;;;;;;;;;;;;;;8.63;100.00;98274.89;1789548;80;21372;-73
2021/04/02 01:19:01;;;;;;;;;;;;;;;8.57;100.00;98266.09;1789505;80;20173;-72
2021/04/02 01:21:37;;;;;;;;;;;;;;;8.51;100.00;98272.52;1789603;80;20167;-73
2021/04/02 01:24:26;;;;;;;;;;;;;;;8.49;100.00;98270.64;1789590;80;20226;-73
2021/04/02 01:27:22;;;;;;;;;;;;;;;8.49;100.00;98267.97;1789637;80;20226;-73
2021/04/02 01:29:56;;;;;;;;;;;;;;;8.49;100.00;98262.62;1794849;79;21191;-73
2021/04/02 01:32:30;;;;;;;;;;;;;;;8.43;100.00;98263.72;1798076;80;20654;-73
2021/04/02 01:35:17;;;;;;;;;;;;;;;8.36;100.00;98269.30;1798299;80;20162;-73
2021/04/02 01:37:51;;;;;;;;;;;;;;;8.30;100.00;98269.03;1798256;80;20226;-72
2021/04/02 01:40:21;;;;;;;;;;;;;;;8.25;100.00;98262.36;1798316;80;20242;-72
2021/04/02 01:42:48;;;;;;;;;;;;;;;8.16;100.00;98258.11;1798221;80;21326;-72
2021/04/02 01:45:17;;;;;;;;;;;;;;;8.08;100.00;98246.61;1771912;80;20190;-72
2021/04/02 01:47:49;;;;;;;;;;;;;;;8.06;100.00;98254.13;1798183;80;20194;-72
2021/04/02 01:50:18;;;;;;;;;;;;;;;8.05;100.00;98265.07;1798287;80;20717;-72
2021/04/02 01:52:47;;;;;;;;;;;;;;;7.98;100.00;98276.02;1798250;80;20230;-71
2021/04/02 01:55:16;;;;;;;;;;;;;;;7.91;100.00;98268.30;1798260;80;21191;-72
2021/04/02 01:57:47;;;;;;;;;;;;;;;7.87;100.00;98263.75;1798168;80;20151;-72
2021/04/02 02:00:18;;;;;;;;;;;;;;;7.84;100.00;98259.74;1771685;80;20170;-72
2021/04/02 02:02:48;;;;;;;;;;;;;;;7.81;100.00;98254.91;1797838;80;20714;-72
2021/04/02 02:05:17;;;;;;;;;;;;;;;7.86;100.00;98251.44;1798310;80;20520;-72
2021/04/02 02:07:47;;;;;;;;;;;;;;;7.89;100.00;98258.95;1798132;80;20557;-73
2021/04/02 02:10:18;;;;;;;;;;;;;;;7.91;100.00;98252.78;1798180;80;20230;-72
2021/04/02 02:12:47;;;;;;;;;;;;;;;7.91;100.00;98258.95;1798215;80;20126;-72
2021/04/02 02:15:20;;;;;;;;;;;;;;;7.92;100.00;98254.40;1771867;80;20245;-72
2021/04/02 02:17:57;;;;;;;;;;;;;;;7.91;100.00;98255.45;1798219;80;20162;-73
2021/04/02 02:20:29;;;;;;;;;;;;;;;7.90;100.00;98249.84;1798188;80;21358;-72
2021/04/02 02:22:58;;;;;;;;;;;;;;;7.90;100.00;98244.51;1798005;80;20159;-73
2021/04/02 02:25:28;;;;;;;;;;;;;;;7.83;100.00;98246.11;1798200;80;20210;-74
2021/04/02 02:28:02;;;;;;;;;;;;;;;7.84;100.00;98250.39;1797812;80;20253;-73
2021/04/02 02:30:32;;;;;;;;;;;;;;;7.84;100.00;98255.73;1798115;80;20233;-73
2021/04/02 02:33:02;;;;;;;;;;;;;;;7.87;100.00;98253.06;1796910;80;21371;-73
2021/04/02 02:35:32;;;;;;;;;;;;;;;7.85;100.00;98243.17;1798115;80;20252;-72
2021/04/02 02:38:01;;;;;;;;;;;;;;;7.80;100.00;98242.64;1798203;80;20162;-72
2021/04/02 02:40:33;;;;;;;;;;;;;;;7.76;100.00;98242.10;1798209;80;20240;-73
2021/04/02 02:43:00;;;;;;;;;;;;;;;7.70;100.00;98243.98;1798185;80;20242;-73
2021/04/02 02:45:32;;;;;;;;;;;;;;;7.61;100.00;98248.23;1798115;80;20270;-72
2021/04/02 02:48:01;;;;;;;;;;;;;;;7.58;100.00;98255.45;1771656;80;20658;-72
2021/04/02 02:50:33;;;;;;;;;;;;;;;7.54;100.00;98265.05;1798045;80;20520;-71
2021/04/02 02:53:04;;;;;;;;;;;;;;;7.43;100.00;98265.04;1771741;80;20254;-72
2021/04/02 02:55:35;;;;;;;;;;;;;;;7.38;100.00;98257.03;1798438;80;20143;-72
2021/04/02 02:58:04;;;;;;;;;;;;;;;7.36;100.00;98248.48;1798355;80;21369;-72
2021/04/02 03:00:35;;;;;;;;;;;;;;;7.33;100.00;98250.34;1798287;80;20529;-71
2021/04/02 03:03:05;;;;;;;;;;;;;;;7.34;100.00;98257.81;1797694;80;20254;-71
2021/04/02 03:05:33;;;;;;;;;;;;;;;7.36;100.00;98251.69;1771727;80;20232;-72
2021/04/02 03:08:03;;;;;;;;;;;;;;;7.38;100.00;98249.55;1798334;80;20248;-72
2021/04/02 03:10:34;;;;;;;;;;;;;;;7.37;100.00;98249.27;1798485;80;22172;-72
2021/04/02 03:13:02;;;;;;;;;;;;;;;7.38;100.00;98250.89;1771751;80;20252;-72
2021/04/02 03:15:32;;;;;;;;;;;;;;;7.39;100.00;98252.48;1798341;80;20178;-72
2021/04/02 03:18:05;;;;;;;;;;;;;;;7.41;100.00;98245.81;1771761;80;20517;-71
2021/04/02 03:20:36;;;;;;;;;;;;;;;7.42;100.00;98227.41;1798258;80;20254;-72
2021/04/02 03:23:05;;;;;;;;;;;;;;;7.41;100.00;98216.98;1798322;80;21203;-72
2021/04/02 03:25:35;;;;;;;;;;;;;;;7.42;100.00;98218.58;1798331;80;20766;-72
2021/04/02 03:28:05;;;;;;;;;;;;;;;7.39;100.00;98226.58;1798000;80;20521;-71
2021/04/02 03:30:37;;;;;;;;;;;;;;;7.39;100.00;98227.13;1796720;80;20316;-71
2021/04/02 03:33:15;;;;;;;;;;;;;;;7.41;100.00;98230.33;1798335;80;20226;-72
2021/04/02 03:35:45;;;;;;;;;;;;;;;7.41;100.00;98234.34;1798207;80;21939;-71
2021/04/02 03:38:16;;;;;;;;;;;;;;;7.43;100.00;98249.02;1771780;80;20150;-71
2021/04/02 03:40:46;;;;;;;;;;;;;;;7.46;100.00;98267.17;1798385;80;20158;-73
2021/04/02 03:43:14;;;;;;;;;;;;;;;7.41;100.00;98283.19;1772075;80;20230;-73
2021/04/02 03:45:45;;;;;;;;;;;;;;;7.36;100.00;98281.05;1798204;80;20218;-72
2021/04/02 03:48:14;;;;;;;;;;;;;;;7.32;100.00;98262.07;1798291;80;21198;-72
2021/04/02 03:50:45;;;;;;;;;;;;;;;7.30;100.00;98241.54;1798345;80;20514;-71
2021/04/02 03:53:27;;;;;;;;;;;;;;;7.30;100.00;98227.66;1798358;80;20134;-71
2021/04/02 03:55:58;;;;;;;;;;;;;;;7.32;100.00;98220.70;1798341;80;20557;-72
2021/04/02 03:58:25;;;;;;;;;;;;;;;7.32;100.00;98221.23;1798363;80;20143;-71
2021/04/02 04:00:59;;;;;;;;;;;;;;;7.30;100.00;98192.16;1798264;80;21442;-72
2021/04/02 04:03:27;;;;;;;;;;;;;;;7.30;100.00;98184.95;1797897;80;20210;-72
2021/04/02 04:05:57;;;;;;;;;;;;;;;7.30;100.00;98176.94;1798172;80;20210;-72
2021/04/02 04:08:26;;;;;;;;;;;;;;;7.36;100.00;98167.60;1798252;80;20289;-71
2021/04/02 04:10:56;;;;;;;;;;;;;;;7.42;100.00;98170.02;1798057;80;20249;-71
2021/04/02 04:13:25;;;;;;;;;;;;;;;7.45;100.00;98167.34;1798423;80;22297;-71
2021/04/02 04:15:53;;;;;;;;;;;;;;;7.46;100.00;98171.06;1798310;80;20163;-71
2021/04/02 04:18:22;;;;;;;;;;;;;;;7.46;100.00;98179.61;1798308;80;20174;-72
2021/04/02 04:20:53;;;;;;;;;;;;;;;7.48;100.00;98199.64;1798311;80;20262;-71
2021/04/02 04:23:23;;;;;;;;;;;;;;;7.49;100.00;98195.88;1797158;80;20245;-71
2021/04/02 04:25:55;;;;;;;;;;;;;;;7.51;100.00;98196.42;1798337;80;22237;-71
2021/04/02 04:28:23;;;;;;;;;;;;;;;7.60;100.00;98207.93;1798218;80;20282;-72
2021/04/02 04:30:53;;;;;;;;;;;;;;;7.67;100.00;98201.79;1798501;80;20512;-71
2021/04/02 04:33:23;;;;;;;;;;;;;;;7.72;100.00;98213.27;1798274;80;20237;-72
2021/04/02 04:35:51;;;;;;;;;;;;;;;7.78;100.00;98227.95;1772058;80;20238;-72
2021/04/02 04:38:18;;;;;;;;;;;;;;;7.82;100.00;98233.83;1798313;80;22129;-71
2021/04/02 04:40:48;;;;;;;;;;;;;;;7.85;100.00;98231.95;1798242;80;20127;-71
2021/04/02 04:43:16;;;;;;;;;;;;;;;7.88;100.00;98236.75;1798366;80;20505;-71
2021/04/02 04:45:43;;;;;;;;;;;;;;;7.93;100.00;98243.42;1798221;80;20246;-71
2021/04/02 04:48:11;;;;;;;;;;;;;;;7.95;100.00;98242.63;1798262;80;20232;-72
2021/04/02 04:50:40;;;;;;;;;;;;;;;8.04;100.00;98248.24;1798147;80;21271;-71
2021/04/02 04:53:26;;;;;;;;;;;;;;;8.09;100.00;98246.11;1798059;80;20162;-72
2021/04/02 04:56:02;;;;;;;;;;;;;;;8.15;100.00;98239.66;1798285;80;20563;-71
2021/04/02 04:58:32;;;;;;;;;;;;;;;8.16;100.00;98235.39;1797269;80;20246;-72
2021/04/02 05:01:05;;;;;;;;;;;;;;;8.22;100.00;98236.18;1797582;80;20258;-72
2021/04/02 05:03:33;;;;;;;;;;;;;;;8.22;100.00;98241.53;1797296;80;21372;-72
2021/04/02 05:06:05;;;;;;;;;;;;;;;8.22;100.00;98245.53;1797927;80;20245;-72
2021/04/02 05:08:45;;;;;;;;;;;;;;;8.20;100.00;98256.23;1797843;80;20250;-72
2021/04/02 05:11:18;;;;;;;;;;;;;;;8.22;100.00;98268.80;1797814;80;20293;-71
2021/04/02 05:13:47;;;;;;;;;;;;;;;8.17;100.00;98258.91;1797561;80;20309;-71
2021/04/02 05:16:14;;;;;;;;;;;;;;;8.22;100.00;98263.45;1796361;80;21269;-71
2021/04/02 05:18:45;;;;;;;;;;;;;;;8.15;100.00;98268.52;1796666;80;20186;-71
2021/04/02 05:21:12;;;;;;;;;;;;;;;8.13;100.00;98280.55;1797640;80;20190;-72
2021/04/02 05:23:41;;;;;;;;;;;;;;;8.08;100.00;98278.69;1797135;80;20719;-70
2021/04/02 05:26:11;;;;;;;;;;;;;;;8.08;100.00;98291.25;1796723;80;20330;-72
2021/04/02 05:28:40;;;;;;;;;;;;;;;8.08;100.00;98306.74;1796191;80;22285;-73
2021/04/02 05:31:09;;;;;;;;;;;;;;;8.04;100.00;98313.72;1790267;80;20421;-72
2021/04/02 05:33:37;;;;;;;;;;;;;;;8.03;100.00;98312.09;1787979;80;20286;-72
2021/04/02 05:36:06;;;;;;;;;;;;;;;7.98;100.00;98320.11;1788509;79;20238;-72
2021/04/02 05:38:34;;;;;;;;;;;;;;;7.99;100.00;98312.38;1788836;77;20509;-70
2021/04/02 05:41:09;;;;;;;;;;;;;;;7.89;100.00;98313.72;1811719;77;20599;-71
2021/04/02 05:43:45;;;;;;;;;;;;;;;7.81;100.00;98307.55;1848584;77;20209;-71
2021/04/02 05:46:14;;;;;;;;;;;;;;;7.61;100.00;98306.45;1848375;77;20265;-71
2021/04/02 05:48:44;;;;;;;;;;;;;;;7.51;100.00;98316.58;1848314;77;20222;-71
2021/04/02 05:51:23;;;;;;;;;;;;;;;7.39;100.00;98314.67;1848607;77;20210;-69
2021/04/02 05:53:52;;;;;;;;;;;;;;;7.34;100.00;98325.34;1818588;77;20499;-68
2021/04/02 05:56:22;;;;;;;;;;;;;;;7.21;100.00;98331.19;1820248;77;20718;-71
2021/04/02 05:58:50;;;;;;;;;;;;;;;7.12;100.00;98319.40;1798416;78;20236;-72
2021/04/02 06:01:19;;;;;;;;;;;;;;;7.06;100.00;98335.39;1820980;78;20236;-72
2021/04/02 06:03:49;;;;;;;;;;;;;;;6.97;100.00;98342.28;1809588;78;20262;-72
2021/04/02 06:06:17;;;;;;;;;;;;;;;6.88;100.00;98341.16;1787934;80;21735;-72
2021/04/02 06:08:47;;;;;;;;;;;;;;;6.81;100.00;98341.41;1788675;80;20666;-70
2021/04/02 06:11:15;;;;;;;;;;;;;;;6.82;100.00;98348.34;1788284;80;20518;-71
2021/04/02 06:13:45;;;;;;;;;;;;;;;6.82;100.00;98345.67;1788631;80;20266;-70
2021/04/02 06:16:14;;;;;;;;;;;;;;;6.82;100.00;98352.88;1800821;78;20298;-70
2021/04/02 06:18:44;;;;;;;;;;;;;;;6.77;100.00;98350.98;1820582;78;20207;-70
2021/04/02 06:21:12;;;;;;;;;;;;;;;6.77;100.00;98340.31;1820315;78;20334;-71
2021/04/02 06:23:40;;;;;;;;;;;;;;;6.78;100.00;98348.57;1789036;78;20287;-70
2021/04/02 06:26:12;;;;;;;;;;;;;;;6.82;100.00;98344.88;1820554;78;20319;-71
2021/04/02 06:28:44;;;;;;;;;;;;;;;6.74;100.00;98324.04;1820664;78;20248;-72
2021/04/02 06:31:15;;;;;;;;;;;;;;;6.74;100.00;98336.04;1820671;78;21194;-71
2021/04/02 06:33:53;;;;;;;;;;;;;;;6.78;100.00;98344.57;1820641;78;20254;-72
2021/04/02 06:36:27;;;;;;;;;;;;;;;6.67;100.00;98344.26;1820980;78;20171;-71
2021/04/02 06:39:22;;;;;;;;;;;;;;;6.57;100.00;98366.33;1820474;78;20545;-71
2021/04/02 06:41:53;;;;;;;;;;;;;;;6.53;100.00;98376.42;1732161;82;20356;-72
2021/04/02 06:44:23;;;;;;;;;;;;;;;6.52;100.00;98381.49;1732236;83;21380;-71
2021/04/02 06:46:50;;;;;;;;;;;;;;;6.52;100.00;98386.29;1731999;82;20308;-71
2021/04/02 06:49:21;;;;;;;;;;;;;;;6.52;100.00;98392.16;1732663;83;20864;-71
2021/04/02 06:51:53;;;;;;;;;;;;;;;6.52;100.00;98393.48;1731692;83;20324;-72
2021/04/02 06:54:26;;;;;;;;;;;;;;;6.54;100.00;98395.34;1731363;82;20544;-73
2021/04/02 06:56:59;;;;;;;;;;;;;;;6.56;100.00;98390.56;1728946;81;20264;-72
2021/04/02 06:59:27;;;;;;;;;;;;;;;6.51;100.00;98402.53;1732484;83;20238;-72
2021/04/02 07:01:55;;;;;;;;;;;;;;;6.41;100.00;98407.25;1730626;83;20517;-71
2021/04/02 07:04:24;;;;;;;;;;;;;;;6.37;100.00;98414.96;1730917;83;20285;-72
2021/04/02 07:06:52;;;;;;;;;;;;;;;6.28;100.00;98419.67;1748477;81;20247;-72
2021/04/02 07:09:22;;;;;;;;;;;;;;;6.25;100.00;98428.16;1736685;81;21205;-72
2021/04/02 07:11:52;;;;;;;;;;;;;;;6.01;100.00;98443.13;1755381;81;20139;-71
2021/04/02 07:14:20;;;;;;;;;;;;;;;5.84;100.00;98445.85;1742906;81;20219;-72
2021/04/02 07:16:50;;;;;;;;;;;;;;;5.73;100.00;98442.78;1748753;82;20290;-71
2021/04/02 07:19:18;;;;;;;;;;;;;;;5.63;100.00;98440.01;1748113;81;20586;-71
2021/04/02 07:21:45;;;;;;;;;;;;;;;5.53;100.00;98442.83;1748570;82;21190;-71
2021/04/02 07:24:17;;;;;;;;;;;;;;;5.39;100.00;98453.58;1748758;82;20218;-71
2021/04/02 07:26:46;;;;;;;;;;;;;;;5.30;100.00;98457.71;1748843;81;20250;-71
2021/04/02 07:29:15;;;;;;;;;;;;;;;5.27;100.00;98460.87;1719867;82;20247;-72
2021/04/02 07:31:44;;;;;;;;;;;;;;;5.20;100.00;98456.25;1724090;82;20287;-70
2021/04/02 07:34:16;;;;;;;;;;;;;;;5.12;100.00;98454.79;1749266;81;21324;-72
2021/04/02 07:36:48;;;;;;;;;;;;;;;5.03;100.00;98456.28;1749566;82;20192;-70
2021/04/02 07:39:21;;;;;;;;;;;;;;;5.00;100.00;98467.38;1748430;81;20231;-70
2021/04/02 07:41:52;;;;;;;;;;;;;;;4.96;100.00;98470.27;1800506;79;20252;-72
2021/04/02 07:44:23;;;;;;;;;;;;;;;4.98;100.00;98466.84;1802066;79;20260;-70
2021/04/02 07:47:08;;;;;;;;;;;;;;;4.96;100.00;98475.05;1802551;79;20968;-71
2021/04/02 07:49:54;;;;;;;;;;;;;;;4.90;100.00;98473.35;1802536;79;20224;-72
2021/04/02 07:52:39;;;;;;;;;;;;;;;4.68;100.00;98482.08;1801788;79;20268;-70
2021/04/02 07:55:18;;;;;;;;;;;;;;;4.54;100.00;98487.95;1801480;79;20303;-71
2021/04/02 07:58:02;;;;;;;;;;;;;;;4.39;100.00;98486.64;1802410;79;20614;-72
2021/04/02 08:00:32;;;;;;;;;;;;;;;4.44;100.00;98489.91;1802389;79;21441;-69
2021/04/02 08:03:15;;;;;;;;;;;;;;;4.38;100.00;98488.20;1802637;79;20193;-72
2021/04/02 08:05:56;;;;;;;;;;;;;;;4.44;100.00;98485.93;1803257;79;20603;-72
2021/04/02 08:08:25;;;;;;;;;;;;;;;4.47;100.00;98481.45;1690082;83;20272;-71
2021/04/02 08:11:00;;;;;;;;;;;;;;;4.38;100.00;98485.55;1690218;85;20308;-71
2021/04/02 08:13:28;;;;;;;;;;;;;;;4.40;100.00;98484.26;1690229;84;21443;-70
2021/04/02 08:15:56;;;;;;;;;;;;;;;4.41;100.00;98483.23;1689533;85;20887;-71
2021/04/02 08:18:25;;;;;;;;;;;;;;;4.38;100.00;98485.02;1690318;85;20610;-71
2021/04/02 08:20:54;;;;;;;;;;;;;;;4.44;100.00;98493.90;1689461;85;20304;-70
2021/04/02 08:23:23;;;;;;;;;;;;;;;4.34;100.00;98500.37;1667174;85;20319;-70
2021/04/02 08:25:53;;;;;;;;;;;;;;;4.38;100.00;98498.30;1690150;85;21171;-71
2021/04/02 08:28:25;;;;;;;;;;;;;;;4.40;100.00;98491.42;1690030;85;20309;-71
2021/04/02 08:30:53;;;;;;;;;;;;;;;4.34;100.00;98501.17;1690155;85;20326;-71
2021/04/02 08:33:23;;;;;;;;;;;;;;;4.37;100.00;98506.53;1689409;85;20344;-70
2021/04/02 08:35:51;;;;;;;;;;;;;;;4.35;100.00;98499.31;1689979;85;20260;-72
2021/04/02 08:38:19;;;;;;;;;;;;;;;4.26;100.00;98498.38;1690035;85;22277;-71
2021/04/02 08:40:50;;;;;;;;;;;;;;;4.29;100.00;98499.75;1667472;84;20596;-72
2021/04/02 08:43:22;;;;;;;;;;;;;;;4.29;100.00;98512.51;1691876;84;20337;-71
2021/04/02 08:45:50;;;;;;;;;;;;;;;4.30;100.00;98515.44;1755682;79;21020;-72
2021/04/02 08:48:21;;;;;;;;;;;;;;;4.20;100.00;98509.94;1805417;79;20233;-72
2021/04/02 08:50:49;;;;;;;;;;;;;;;4.26;100.00;98512.16;1805541;79;20530;-71
2021/04/02 08:53:18;;;;;;;;;;;;;;;4.29;100.00;98517.02;1805310;79;20264;-72
2021/04/02 08:55:46;;;;;;;;;;;;;;;4.31;100.00;98521.55;1805327;79;20142;-71
2021/04/02 08:58:13;;;;;;;;;;;;;;;4.24;100.00;98514.27;1804493;79;20324;-72
2021/04/02 09:00:41;;;;;;;;;;;;;;;4.29;100.00;98519.67;1805174;79;20324;-71
2021/04/02 09:03:09;;;;;;;;;;;;;;;4.35;100.00;98520.03;1804718;79;21201;-71
2021/04/02 09:05:39;;;;;;;;;;;;;;;4.54;100.00;98522.50;1804486;79;20217;-71
2021/04/02 09:08:07;;;;;;;;;;;;;;;4.57;100.00;98514.84;1804713;79;20212;-72
2021/04/02 09:10:35;;;;;;;;;;;;;;;4.58;100.00;98527.10;1804798;79;20243;-71
2021/04/02 09:13:02;;;;;;;;;;;;;;;4.61;100.00;98523.16;1750116;79;20284;-72
2021/04/02 09:15:33;;;;;;;;;;;;;;;4.59;100.00;98519.93;1804777;79;21375;-74
2021/04/02 09:18:16;;;;;;;;;;;;;;;4.55;100.00;98530.22;1805316;79;20157;-72
2021/04/02 09:20:45;;;;;;;;;;;;;;;4.45;100.00;98526.86;1804978;79;20256;-73
2021/04/02 09:23:13;;;;;;;;;;;;;;;4.31;100.00;98524.20;1804110;79;20280;-72
2021/04/02 09:25:47;;;;;;;;;;;;;;;4.31;100.00;98522.87;1776683;79;20559;-72
2021/04/02 09:28:22;;;;;;;;;;;;;;;4.35;100.00;98529.86;1804314;79;22273;-71
2021/04/02 09:30:51;;;;;;;;;;;;;;;4.38;100.00;98539.48;1804768;79;20233;-71
2021/04/02 09:33:19;;;;;;;;;;;;;;;4.47;100.00;98537.26;1805072;79;20232;-72
2021/04/02 09:35:47;;;;;;;;;;;;;;;4.43;100.00;98540.09;1805141;79;20176;-72
2021/04/02 09:38:17;;;;;;;;;;;;;;;4.39;100.00;98548.28;1805054;79;20573;-71
2021/04/02 09:40:45;;;;;;;;;;;;;;;4.26;100.00;98548.02;1802117;79;21259;-71
2021/04/02 09:43:12;;;;;;;;;;;;;;;4.23;100.00;98551.16;1794578;80;20630;-72
2021/04/02 09:45:40;;;;;;;;;;;;;;;4.11;100.00;98554.38;1793754;79;21189;-73
2021/04/02 09:48:21;;;;;;;;;;;;;;;4.02;100.00;98552.10;1793893;80;20662;-72
2021/04/02 09:50:52;;;;;;;;;;;;;;;4.01;100.00;98549.14;1793621;80;20232;-72
2021/04/02 09:53:21;;;;;;;;;;;;;;;3.91;100.00;98554.25;1774201;80;21764;-73
2021/04/02 09:55:48;;;;;;;;;;;;;;;3.95;100.00;98561.25;1794026;80;20193;-72
2021/04/02 09:58:18;;;;;;;;;;;;;;;3.95;100.00;98550.63;1793764;78;20210;-73
2021/04/02 10:00:54;;;;;;;;;;;;;;;3.95;100.00;98555.94;1794213;80;20277;-73
2021/04/02 10:03:25;;;;;;;;;;;;;;;4.01;100.00;98559.77;1794564;80;20304;-73
2021/04/02 10:05:53;;;;;;;;;;;;;;;4.12;100.00;98562.12;1794438;80;21261;-72
2021/04/02 10:08:22;;;;;;;;;;;;;;;4.15;100.00;98560.84;1763833;78;20588;-73
2021/04/02 10:10:50;;;;;;;;;;;;;;;4.08;100.00;98564.42;1774851;79;20251;-74
2021/04/02 10:13:19;;;;;;;;;;;;;;;3.91;100.00;98564.88;1772186;80;20223;-72
2021/04/02 10:15:47;;;;;;;;;;;;;;;3.71;100.00;98566.59;1771819;80;20275;-73
2021/04/02 10:18:17;;;;;;;;;;;;;;;3.62;100.00;98556.84;1772462;80;22204;-73
2021/04/02 10:20:44;;;;;;;;;;;;;;;3.57;100.00;98566.02;1772470;81;20588;-73
2021/04/02 10:23:13;;;;;;;;;;;;;;;3.53;100.00;98560.08;1771691;80;20581;-73
2021/04/02 10:25:41;;;;;;;;;;;;;;;3.41;100.00;98561.44;1770842;81;20316;-72
2021/04/02 10:28:09;;;;;;;;;;;;;;;3.49;100.00;98569.03;1750556;81;20514;-73
2021/04/02 10:30:38;;;;;;;;;;;;;;;3.34;100.00;98558.09;1771026;80;21190;-73
2021/04/02 10:33:06;;;;;;;;;;;;;;;3.24;100.00;98559.98;1770778;81;20290;-72
2021/04/02 10:35:35;;;;;;;;;;;;;;;3.28;100.00;98566.95;1771540;80;20310;-72
2021/04/02 10:41:05;;;;;;;;;;;;;;;3.56;100.00;98563.09;1845315;76;20195;-72
2021/04/02 10:43:33;;;;;;;;;;;;;;;3.57;100.00;98566.55;1857305;77;20138;-73
2021/04/02 10:46:02;;;;;;;;;;;;;;;3.61;100.00;98563.20;1848681;77;21187;-73
2021/04/02 10:48:35;;;;;;;;;;;;;;;3.66;100.00;98554.54;1837159;77;20130;-71
2021/04/02 10:51:03;;;;;;;;;;;;;;;3.65;100.00;98558.25;1828393;77;20164;-72
2021/04/02 10:53:32;;;;;;;;;;;;;;;3.50;100.00;98562.67;1824082;78;20164;-72
2021/04/02 10:56:03;;;;;;;;;;;;;;;3.57;100.00;98567.87;1823650;78;20196;-73
2021/04/02 10:58:30;;;;;;;;;;;;;;;3.58;100.00;98569.50;1823508;78;21205;-73
2021/04/02 11:00:59;;;;;;;;;;;;;;;3.57;100.00;98550.09;1791995;78;20212;-73
2021/04/02 11:03:26;;;;;;;;;;;;;;;3.55;100.00;98580.06;1823552;78;20156;-72
2021/04/02 11:05:54;;;;;;;;;;;;;;;3.60;100.00;98584.64;1824133;78;20499;-72
2021/04/02 11:08:21;;;;;;;;;;;;;;;3.59;100.00;98581.72;1823682;78;20251;-74
2021/04/02 11:10:49;;;;;;;;;;;;;;;3.60;100.00;98578.84;1823652;78;21368;-73
2021/04/02 11:13:22;;;;;;;;;;;;;;;3.62;100.00;98582.05;1823334;78;20612;-74
2021/04/02 11:15:51;;;;;;;;;;;;;;;3.53;100.00;98582.63;1824641;77;20215;-73
2021/04/02 11:18:18;;;;;;;;;;;;;;;3.51;100.00;98587.38;1826137;77;20251;-72
2021/04/02 11:20:47;;;;;;;;;;;;;;;3.48;100.00;98586.00;1828131;77;20572;-72
2021/04/02 11:23:17;;;;;;;;;;;;;;;3.56;100.00;98584.84;1833296;77;21871;-72
2021/04/02 11:25:48;;;;;;;;;;;;;;;3.53;100.00;98590.09;1835095;77;20172;-72
2021/04/02 11:28:16;;;;;;;;;;;;;;;3.56;100.00;98595.45;1829868;77;20134;-72
2021/04/02 11:30:46;;;;;;;;;;;;;;;3.59;100.00;98592.33;1840224;77;20291;-73
2021/04/02 11:33:13;;;;;;;;;;;;;;;3.50;100.00;98595.84;1832718;77;20646;-72
2021/04/02 11:35:41;;;;;;;;;;;;;;;3.58;100.00;98596.03;1832210;77;21408;-70
2021/04/02 11:38:11;;;;;;;;;;;;;;;3.62;100.00;98597.97;1830185;77;20761;-72
2021/04/02 11:40:39;;;;;;;;;;;;;;;3.52;100.00;98600.40;1801359;77;20619;-72
2021/04/02 11:43:07;;;;;;;;;;;;;;;3.53;100.00;98594.07;1847121;77;20189;-72
2021/04/02 11:45:36;;;;;;;;;;;;;;;3.59;100.00;98605.08;1855491;77;20245;-72
2021/04/02 11:48:05;;;;;;;;;;;;;;;3.69;100.00;98599.71;1854674;77;22188;-71
2021/04/02 11:50:33;;;;;;;;;;;;;;;3.77;100.00;98600.17;1855474;77;20107;-73
2021/04/02 11:53:01;;;;;;;;;;;;;;;3.79;100.00;98603.91;1855190;77;20500;-72
2021/04/02 11:55:30;;;;;;;;;;;;;;;3.88;100.00;98609.69;1855112;77;20214;-72
2021/04/02 11:58:00;;;;;;;;;;;;;;;3.83;100.00;98613.83;1854820;77;20262;-73
2021/04/02 12:00:28;;;;;;;;;;;;;;;3.89;100.00;98609.43;1854798;77;21138;-72
2021/04/02 12:02:56;;;;;;;;;;;;;;;3.93;100.00;98611.11;1824412;77;20131;-72
2021/04/02 12:05:24;;;;;;;;;;;;;;;3.95;100.00;98611.16;1854183;77;20158;-71
2021/04/02 12:07:54;;;;;;;;;;;;;;;3.93;100.00;98609.26;1854315;77;20218;-72
2021/04/02 12:10:22;;;;;;;;;;;;;;;3.96;100.00;98613.30;1854358;77;20170;-72
2021/04/02 12:12:52;;;;;;;;;;;;;;;3.93;100.00;98609.78;1854749;77;22107;-72
2021/04/02 12:15:20;;;;;;;;;;;;;;;4.01;100.00;98607.56;1854324;77;20210;-72
2021/04/02 12:17:59;;;;;;;;;;;;;;;4.01;100.00;98616.05;1853694;77;20127;-73
2021/04/02 12:20:27;;;;;;;;;;;;;;;4.09;100.00;98610.37;1854277;77;20309;-71
2021/04/02 12:22:56;;;;;;;;;;;;;;;4.17;100.00;98610.55;1855160;77;20209;-73
2021/04/02 12:25:26;;;;;;;;;;;;;;;4.19;100.00;98607.11;1854722;77;22216;-72
2021/04/02 12:27:53;;;;;;;;;;;;;;;4.20;100.00;98604.77;1854490;77;20214;-71
2021/04/02 12:30:21;;;;;;;;;;;;;;;4.19;100.00;98614.59;1854626;77;20131;-72
2021/04/02 12:32:49;;;;;;;;;;;;;;;4.25;100.00;98610.17;1854195;77;20281;-72
2021/04/02 12:35:20;;;;;;;;;;;;;;;4.23;100.00;98612.25;1850432;77;20237;-73
2021/04/02 12:37:48;;;;;;;;;;;;;;;4.19;100.00;98609.77;1854816;77;20961;-72
2021/04/02 12:40:17;;;;;;;;;;;;;;;4.15;100.00;98609.97;1850396;77;20644;-72
2021/04/02 12:42:45;;;;;;;;;;;;;;;4.13;100.00;98620.82;1844241;77;20226;-74
2021/04/02 12:45:13;;;;;;;;;;;;;;;4.12;100.00;98625.06;1844004;77;20337;-72
2021/04/02 12:47:41;;;;;;;;;;;;;;;4.08;100.00;98618.86;1844118;77;20268;-73
2021/04/02 12:50:12;;;;;;;;;;;;;;;4.06;100.00;98622.27;1821184;77;21361;-73
2021/04/02 12:52:40;;;;;;;;;;;;;;;4.17;100.00;98615.34;1832952;77;20131;-73
2021/04/02 12:55:32;;;;;;;;;;;;;;;4.40;100.00;98628.27;1844160;77;20261;-74
2021/04/02 12:57:59;;;;;;;;;;;;;;;4.59;100.00;98633.69;1845354;77;20238;-72
2021/04/02 13:00:28;;;;;;;;;;;;;;;4.71;100.00;98633.64;1845453;77;20131;-72
2021/04/02 13:02:58;;;;;;;;;;;;;;;4.82;100.00;98629.30;1844824;77;21188;-72
2021/04/02 13:05:29;;;;;;;;;;;;;;;4.84;100.00;98630.68;1845568;77;20139;-72
2021/04/02 13:08:01;;;;;;;;;;;;;;;4.95;100.00;98631.69;1845454;77;20266;-72